Airfield :
LOGIN :

Register | Disclaimer

   EN    FR    IT 

 










Legend :    VFR   Marginal VFR   IFR   Intensive IFR   Very Intensive IFR
Visi :
Ceiling :
>= 8 km
>= 3000ft
5 to 8 km
1000 to 3000 ft
1500m to 5 km
500 to 1000 ft
800 to 1500m
200 to 500 ft
< 800m
< 200 ft
Symbols :   Thunderstorms  Fog  Heavy snow  Heavy precipitations  Wind > 20 kt
SIGMETs :     Misc.  Thunderstorms  Icing  Turbulence  Mountain Waves  Volcanic Ashes







- Airport Elevation : 512 ft
- IATA code : URO
- Download approach charts


LFOP - Rouen Vallée de Seine

CURRENT METAR :
  • 281230Z AUTO 23011KT 200V260 9999 BKN040 BKN050 BKN084 21/11 Q1014 NOSIG

EXPIRED METARs :
  • 281200Z AUTO 23014KT 9999 SCT038 BKN044 BKN054 20/11 Q1014 NOSIG
  • 281130Z AUTO 23012KT 9999 SCT035 BKN043 BKN110 21/11 Q1014 NOSIG
  • 281100Z AUTO 23012KT 9999 BKN032 BKN039 OVC045 21/11 Q1014 NOSIG
  • 281030Z AUTO 23008KT 200V270 9999 BKN029 BKN039 OVC046 19/11 Q1014 NOSIG
  • 281000Z AUTO 23012KT 200V270 9999 SCT026 BKN032 BKN100 21/11 Q1014 NOSIG

TAF TAF LFOP
Valid from the 28 at 06:00 until the 29 at 06:00 UTC


280500Z 2806/2906 23010KT CAVOK
PROB30 2904/2906 BKN013
ATIS : +33 2 35 80 80 34
Met : +33 2 32 86 52 80
No reported NOTAMs for that airfield.



MET'MAP, your aeronautical weather chart ! - Copyright ORBIFLY December 2007 - Disclaimer

ORBIFLY MET'MAP TEAM :

Programming & Development : Alexandra Zaïnal
Concept & Development : Baudouin d'Aumeries
Co-Development & Prog : Marc-Olivier Méhu
Technical & hardware support : Manuel Goepfert

Contact : metmap@orbifly.com




SOURCES & CREDITS :

   NOAA